Aérodrome :
LOGIN :

S'inscrire | Disclaimer

   EN    FR    IT 

 










Légende :    VFR   VFR Marginal   IFR   IFR Intensif   IFR Très Intensif
Visi : 
Plafond : 
>= 8 km
>= 3000ft
5 à 8 km
1000 à 3000 ft
1500m à 5 km
500 à 1000 ft
800 à 1500m
200 à 500 ft
< 800m
< 200 ft
Symboles :   Orages  Brouillard  Fortes neiges  Fortes précipitations  Vent > 20 kt
SIGMETs :   Divers  Orages  Givrage  Turbulence  Onde Orograph.  Cendres Volcan.






- Altitude de l'aérodrome : 286 ft
- Code IATA : FFD


EGVA - RAF Fairford

DERNIER METAR :
  • 010921Z 09009KT 5000 BR OVC004 03/03 A3047 RMK AO2A SLP325 $

METARs EXPIRÉS :
  • 010911Z 09008KT 4000 BR OVC003 03/03 A3047 RMK AO2A SLP325 $
  • 010856Z 08012KT 3200 BR OVC003 03/03 A3047 RMK AO2A SLP325 T00310031 55000 $
  • 010816Z 08010KT 2400 BR OVC003 03/03 A3047 RMK AO2A VIS 2400 RWY09 CIG 002 RWY09 SLP325 $
  • 010756Z 06012KT 1800 BR OVC002 03/03 A3046 RMK AO2A VIS 1800 RWY09 SLP321 T00270027 $
  • 010728Z 07007KT 1200 BR OVC002 03/03 A3046 RMK VIS 1200 RWY09 SLP321 $
  • 010656Z AUTO 07009KT 9999 OVC002 03/03 A3046 RMK AO2 VIS 1600 RWY09 CIG 001 RWY09 SLP321 T00250025 $

TAF TAF EGVA
Valide du 01 à 07h jusqu'au 02 à 13h UTC


010730Z 0107/0213 08009KT 1600 BR OVC002 QNH3051INS
TEMPO 0107/0109 3200
BECMG 0110/0111 09010G15KT 9999 NSW SCT007 BKN015 QNH3050INS
BECMG 0112/0113 09010G15KT 9999 FEW020 QNH3044INS
BECMG 0122/0123 09012KT 8000 BR SCT006 QNH3042INS
BECMG 0202/0203 08006KT 3200 BR OVC003 QNH3041INS
BECMG 0210/0211 09006KT 8000 BR BKN008 QNH3041INS
BECMG 0211/0212 09006KT 9999 NSW SCT010 QNH3040INS TX06/0112Z TN00/0203Z



MET'MAP, la Météo Aéronautique d'un coup d'oeil ! - Copyright ORBIFLY Décembre 2007 - Disclaimer

ORBIFLY MET'MAP TEAM :

Programmation & Développement : Alexandra Zaïnal
Sur une idée originale de : Baudouin d'Aumeries
Assistance à la programmation : Marc-Olivier Méhu
Soutien technique & logistique : Manuel Goepfert

Contact : metmap@orbifly.com




SOURCES & CREDITS :

   NOAA